sensor_id;sensor_type;location;lat;lon;timestamp;temperature;humidity
46492;DHT22;32206;51.446;6.792;2023-04-24T00:07:48;11.60;1.00
46492;DHT22;32206;51.446;6.792;2023-04-24T00:13:37;11.60;1.00
46492;DHT22;32206;51.446;6.792;2023-04-24T00:16:03;11.60;7.00
46492;DHT22;32206;51.446;6.792;2023-04-24T00:18:28;11.60;11.70
46492;DHT22;32206;51.446;6.792;2023-04-24T00:20:54;11.60;12.10
46492;DHT22;32206;51.446;6.792;2023-04-24T00:23:20;11.60;12.60
46492;DHT22;32206;51.446;6.792;2023-04-24T00:29:04;11.50;1.00
46492;DHT22;32206;51.446;6.792;2023-04-24T00:38:10;11.50;1.00
46492;DHT22;32206;51.446;6.792;2023-04-24T00:43:58;11.50;7.70
46492;DHT22;32206;51.446;6.792;2023-04-24T00:46:23;11.50;1.60
46492;DHT22;32206;51.446;6.792;2023-04-24T00:48:50;11.40;1.00
46492;DHT22;32206;51.446;6.792;2023-04-24T00:51:16;11.30;1.00
46492;DHT22;32206;51.446;6.792;2023-04-24T00:53:41;11.30;1.00
46492;DHT22;32206;51.446;6.792;2023-04-24T00:56:07;11.20;1.00
46492;DHT22;32206;51.446;6.792;2023-04-24T00:58:33;11.10;1.00
46492;DHT22;32206;51.446;6.792;2023-04-24T01:00:59;11.10;1.00
46492;DHT22;32206;51.446;6.792;2023-04-24T01:03:29;11.00;1.00
46492;DHT22;32206;51.446;6.792;2023-04-24T01:05:56;11.00;1.00
46492;DHT22;32206;51.446;6.792;2023-04-24T01:08:24;10.90;1.00
46492;DHT22;32206;51.446;6.792;2023-04-24T01:14:12;10.80;1.60
46492;DHT22;32206;51.446;6.792;2023-04-24T01:20:00;10.60;10.60
46492;DHT22;32206;51.446;6.792;2023-04-24T01:25:52;10.50;32.50
46492;DHT22;32206;51.446;6.792;2023-04-24T01:28:18;10.50;28.20
46492;DHT22;32206;51.446;6.792;2023-04-24T01:30:44;10.40;36.00
46492;DHT22;32206;51.446;6.792;2023-04-24T01:36:33;10.40;45.00
46492;DHT22;32206;51.446;6.792;2023-04-24T01:39:00;10.40;42.50
46492;DHT22;32206;51.446;6.792;2023-04-24T01:41:26;10.40;39.00
46492;DHT22;32206;51.446;6.792;2023-04-24T01:43:52;10.40;46.10
46492;DHT22;32206;51.446;6.792;2023-04-24T01:46:17;10.40;48.80
46492;DHT22;32206;51.446;6.792;2023-04-24T01:48:45;10.40;49.00
46492;DHT22;32206;51.446;6.792;2023-04-24T01:51:10;10.40;52.30
46492;DHT22;32206;51.446;6.792;2023-04-24T01:53:36;10.40;58.60
46492;DHT22;32206;51.446;6.792;2023-04-24T01:56:02;10.30;60.20
46492;DHT22;32206;51.446;6.792;2023-04-24T01:58:28;10.30;60.40
46492;DHT22;32206;51.446;6.792;2023-04-24T02:00:56;10.30;59.30
46492;DHT22;32206;51.446;6.792;2023-04-24T02:03:23;10.30;59.30
46492;DHT22;32206;51.446;6.792;2023-04-24T02:05:48;10.20;61.20
46492;DHT22;32206;51.446;6.792;2023-04-24T02:08:14;10.20;70.40
46492;DHT22;32206;51.446;6.792;2023-04-24T02:10:39;10.20;68.90
46492;DHT22;32206;51.446;6.792;2023-04-24T02:13:05;10.20;74.20
46492;DHT22;32206;51.446;6.792;2023-04-24T02:15:31;10.20;58.80
46492;DHT22;32206;51.446;6.792;2023-04-24T02:17:56;10.20;62.70
46492;DHT22;32206;51.446;6.792;2023-04-24T02:20:22;10.20;56.30
46492;DHT22;32206;51.446;6.792;2023-04-24T02:22:48;10.10;60.70
46492;DHT22;32206;51.446;6.792;2023-04-24T02:28:35;10.00;67.30
46492;DHT22;32206;51.446;6.792;2023-04-24T02:31:01;10.00;71.00
46492;DHT22;32206;51.446;6.792;2023-04-24T02:37:07;10.00;73.90
46492;DHT22;32206;51.446;6.792;2023-04-24T02:39:32;10.00;74.00
46492;DHT22;32206;51.446;6.792;2023-04-24T02:45:20;9.90;77.80
46492;DHT22;32206;51.446;6.792;2023-04-24T02:47:46;9.90;79.30
46492;DHT22;32206;51.446;6.792;2023-04-24T02:50:12;9.90;82.30
46492;DHT22;32206;51.446;6.792;2023-04-24T02:52:37;9.90;87.80
46492;DHT22;32206;51.446;6.792;2023-04-24T02:55:03;10.00;88.00
46492;DHT22;32206;51.446;6.792;2023-04-24T03:00:54;10.00;82.30
46492;DHT22;32206;51.446;6.792;2023-04-24T03:03:23;9.90;84.10
46492;DHT22;32206;51.446;6.792;2023-04-24T03:05:49;9.90;84.30
46492;DHT22;32206;51.446;6.792;2023-04-24T03:08:15;9.90;88.30
46492;DHT22;32206;51.446;6.792;2023-04-24T03:17:25;10.00;87.90
46492;DHT22;32206;51.446;6.792;2023-04-24T03:19:50;10.00;90.10
46492;DHT22;32206;51.446;6.792;2023-04-24T03:22:16;10.00;83.00
46492;DHT22;32206;51.446;6.792;2023-04-24T03:24:42;10.00;83.80
46492;DHT22;32206;51.446;6.792;2023-04-24T03:27:07;10.00;85.00
46492;DHT22;32206;51.446;6.792;2023-04-24T03:29:33;9.90;85.80
46492;DHT22;32206;51.446;6.792;2023-04-24T03:31:58;9.90;86.20
46492;DHT22;32206;51.446;6.792;2023-04-24T03:34:24;10.00;90.90
46492;DHT22;32206;51.446;6.792;2023-04-24T03:36:50;10.00;88.10
46492;DHT22;32206;51.446;6.792;2023-04-24T03:39:16;10.00;84.70
46492;DHT22;32206;51.446;6.792;2023-04-24T03:48:25;10.00;85.70
46492;DHT22;32206;51.446;6.792;2023-04-24T03:50:51;10.30;77.30
46492;DHT22;32206;51.446;6.792;2023-04-24T03:53:17;10.00;74.70
46492;DHT22;32206;51.446;6.792;2023-04-24T03:55:42;10.00;77.10
46492;DHT22;32206;51.446;6.792;2023-04-24T04:01:30;10.10;73.40
46492;DHT22;32206;51.446;6.792;2023-04-24T04:07:18;10.00;62.20
46492;DHT22;32206;51.446;6.792;2023-04-24T04:09:43;10.10;68.60
46492;DHT22;32206;51.446;6.792;2023-04-24T04:18:56;10.00;64.80
46492;DHT22;32206;51.446;6.792;2023-04-24T04:21:22;10.10;63.10
46492;DHT22;32206;51.446;6.792;2023-04-24T04:23:47;10.00;64.20
46492;DHT22;32206;51.446;6.792;2023-04-24T04:29:35;10.10;61.20
46492;DHT22;32206;51.446;6.792;2023-04-24T04:32:01;10.10;64.30
46492;DHT22;32206;51.446;6.792;2023-04-24T04:41:12;10.00;56.90
46492;DHT22;32206;51.446;6.792;2023-04-24T04:43:38;10.00;65.20
46492;DHT22;32206;51.446;6.792;2023-04-24T04:46:05;10.10;57.80
46492;DHT22;32206;51.446;6.792;2023-04-24T04:48:30;10.10;58.30
46492;DHT22;32206;51.446;6.792;2023-04-24T04:50:57;10.00;54.20
46492;DHT22;32206;51.446;6.792;2023-04-24T04:53:23;10.00;59.50
46492;DHT22;32206;51.446;6.792;2023-04-24T04:55:48;10.10;58.60
46492;DHT22;32206;51.446;6.792;2023-04-24T04:58:14;10.10;57.90
46492;DHT22;32206;51.446;6.792;2023-04-24T05:00:40;10.10;41.90
46492;DHT22;32206;51.446;6.792;2023-04-24T05:03:06;10.00;40.20
46492;DHT22;32206;51.446;6.792;2023-04-24T05:08:54;10.00;40.40
46492;DHT22;32206;51.446;6.792;2023-04-24T05:11:23;9.90;35.30
46492;DHT22;32206;51.446;6.792;2023-04-24T05:20:30;9.80;73.30
46492;DHT22;32206;51.446;6.792;2023-04-24T05:22:55;9.70;91.30
46492;DHT22;32206;51.446;6.792;2023-04-24T05:25:21;9.60;96.90
46492;DHT22;32206;51.446;6.792;2023-04-24T05:27:47;9.50;99.90
46492;DHT22;32206;51.446;6.792;2023-04-24T05:30:12;9.40;99.90
46492;DHT22;32206;51.446;6.792;2023-04-24T05:32:38;9.30;99.90
46492;DHT22;32206;51.446;6.792;2023-04-24T05:35:04;9.20;99.90
46492;DHT22;32206;51.446;6.792;2023-04-24T05:37:30;9.20;99.90
46492;DHT22;32206;51.446;6.792;2023-04-24T05:39:55;9.20;99.90
46492;DHT22;32206;51.446;6.792;2023-04-24T05:49:05;9.30;99.90
46492;DHT22;32206;51.446;6.792;2023-04-24T05:51:31;9.30;99.90
46492;DHT22;32206;51.446;6.792;2023-04-24T05:53:57;9.30;99.90
46492;DHT22;32206;51.446;6.792;2023-04-24T05:56:23;9.30;99.90
46492;DHT22;32206;51.446;6.792;2023-04-24T06:02:14;9.40;99.90
46492;DHT22;32206;51.446;6.792;2023-04-24T06:07:55;9.40;99.90
46492;DHT22;32206;51.446;6.792;2023-04-24T06:10:22;9.50;99.90
46492;DHT22;32206;51.446;6.792;2023-04-24T06:12:49;9.50;99.90
46492;DHT22;32206;51.446;6.792;2023-04-24T06:15:14;9.40;99.90
46492;DHT22;32206;51.446;6.792;2023-04-24T06:17:40;9.40;99.90
46492;DHT22;32206;51.446;6.792;2023-04-24T06:23:28;9.30;99.90
46492;DHT22;32206;51.446;6.792;2023-04-24T06:25:54;9.30;99.90
46492;DHT22;32206;51.446;6.792;2023-04-24T06:28:20;9.30;99.90
46492;DHT22;32206;51.446;6.792;2023-04-24T06:30:46;9.30;99.90
46492;DHT22;32206;51.446;6.792;2023-04-24T06:33:11;9.30;99.90
46492;DHT22;32206;51.446;6.792;2023-04-24T06:35:37;9.20;99.90
46492;DHT22;32206;51.446;6.792;2023-04-24T06:38:03;9.20;99.90
46492;DHT22;32206;51.446;6.792;2023-04-24T06:40:29;9.20;99.90
46492;DHT22;32206;51.446;6.792;2023-04-24T06:42:55;9.20;99.90
46492;DHT22;32206;51.446;6.792;2023-04-24T06:48:43;9.20;99.90
46492;DHT22;32206;51.446;6.792;2023-04-24T06:54:46;9.20;99.90
46492;DHT22;32206;51.446;6.792;2023-04-24T06:57:12;9.20;99.90
46492;DHT22;32206;51.446;6.792;2023-04-24T07:03:00;9.10;99.90
46492;DHT22;32206;51.446;6.792;2023-04-24T07:08:49;9.10;99.90
46492;DHT22;32206;51.446;6.792;2023-04-24T07:11:15;9.00;99.90
46492;DHT22;32206;51.446;6.792;2023-04-24T07:20:16;9.00;99.90
46492;DHT22;32206;51.446;6.792;2023-04-24T07:26:03;9.00;99.90
46492;DHT22;32206;51.446;6.792;2023-04-24T07:28:29;9.10;99.90
46492;DHT22;32206;51.446;6.792;2023-04-24T07:30:58;9.30;99.90
46492;DHT22;32206;51.446;6.792;2023-04-24T07:33:28;9.10;99.90
46492;DHT22;32206;51.446;6.792;2023-04-24T07:42:38;9.00;99.90
46492;DHT22;32206;51.446;6.792;2023-04-24T07:45:04;8.80;99.90
46492;DHT22;32206;51.446;6.792;2023-04-24T07:47:30;8.80;99.90
46492;DHT22;32206;51.446;6.792;2023-04-24T07:49:56;8.70;99.90
46492;DHT22;32206;51.446;6.792;2023-04-24T07:52:22;8.70;99.90
46492;DHT22;32206;51.446;6.792;2023-04-24T07:54:48;8.60;99.90
46492;DHT22;32206;51.446;6.792;2023-04-24T07:57:15;8.60;99.90
46492;DHT22;32206;51.446;6.792;2023-04-24T07:59:41;8.50;99.90
46492;DHT22;32206;51.446;6.792;2023-04-24T08:02:07;8.50;99.90
46492;DHT22;32206;51.446;6.792;2023-04-24T08:04:33;8.50;99.90
46492;DHT22;32206;51.446;6.792;2023-04-24T08:06:59;8.50;99.90
46492;DHT22;32206;51.446;6.792;2023-04-24T08:09:24;8.60;99.90
46492;DHT22;32206;51.446;6.792;2023-04-24T08:11:50;8.60;99.90
46492;DHT22;32206;51.446;6.792;2023-04-24T08:21:00;8.50;99.90
46492;DHT22;32206;51.446;6.792;2023-04-24T08:23:27;8.40;99.90
46492;DHT22;32206;51.446;6.792;2023-04-24T08:25:52;8.50;99.90
46492;DHT22;32206;51.446;6.792;2023-04-24T08:28:18;8.50;99.90
46492;DHT22;32206;51.446;6.792;2023-04-24T08:34:09;8.50;99.90
46492;DHT22;32206;51.446;6.792;2023-04-24T08:36:35;8.50;99.90
46492;DHT22;32206;51.446;6.792;2023-04-24T08:52:29;9.00;99.90
46492;DHT22;32206;51.446;6.792;2023-04-24T08:54:55;9.10;99.90
46492;DHT22;32206;51.446;6.792;2023-04-24T08:57:22;9.10;99.90
46492;DHT22;32206;51.446;6.792;2023-04-24T09:03:10;9.20;99.90
46492;DHT22;32206;51.446;6.792;2023-04-24T09:05:36;9.10;99.90
46492;DHT22;32206;51.446;6.792;2023-04-24T09:08:24;9.00;99.90
46492;DHT22;32206;51.446;6.792;2023-04-24T09:10:50;9.00;99.90
46492;DHT22;32206;51.446;6.792;2023-04-24T09:13:16;9.00;99.90
46492;DHT22;32206;51.446;6.792;2023-04-24T09:15:43;9.00;99.90
46492;DHT22;32206;51.446;6.792;2023-04-24T09:18:09;9.00;99.90
46492;DHT22;32206;51.446;6.792;2023-04-24T09:20:35;9.00;99.90
46492;DHT22;32206;51.446;6.792;2023-04-24T09:26:43;9.00;99.90
46492;DHT22;32206;51.446;6.792;2023-04-24T09:29:17;8.90;99.90
46492;DHT22;32206;51.446;6.792;2023-04-24T09:31:44;8.90;99.90
46492;DHT22;32206;51.446;6.792;2023-04-24T09:34:11;8.90;99.90
46492;DHT22;32206;51.446;6.792;2023-04-24T09:36:43;9.00;99.90
46492;DHT22;32206;51.446;6.792;2023-04-24T09:42:30;8.90;99.90
46492;DHT22;32206;51.446;6.792;2023-04-24T09:48:29;8.90;99.90
46492;DHT22;32206;51.446;6.792;2023-04-24T09:50:55;8.80;99.90
46492;DHT22;32206;51.446;6.792;2023-04-24T09:53:24;8.80;99.90
46492;DHT22;32206;51.446;6.792;2023-04-24T09:55:50;8.80;99.90
46492;DHT22;32206;51.446;6.792;2023-04-24T09:58:16;8.80;99.90
46492;DHT22;32206;51.446;6.792;2023-04-24T10:00:41;8.70;99.90
46492;DHT22;32206;51.446;6.792;2023-04-24T10:03:07;8.80;99.90
46492;DHT22;32206;51.446;6.792;2023-04-24T10:05:37;8.80;99.90
46492;DHT22;32206;51.446;6.792;2023-04-24T10:08:13;8.80;99.90
46492;DHT22;32206;51.446;6.792;2023-04-24T10:13:07;8.80;99.90
46492;DHT22;32206;51.446;6.792;2023-04-24T10:18:56;8.90;99.90
46492;DHT22;32206;51.446;6.792;2023-04-24T10:21:24;9.00;99.90
46492;DHT22;32206;51.446;6.792;2023-04-24T10:27:21;9.10;99.90
46492;DHT22;32206;51.446;6.792;2023-04-24T10:29:48;9.00;99.90
46492;DHT22;32206;51.446;6.792;2023-04-24T10:32:16;8.90;99.90
46492;DHT22;32206;51.446;6.792;2023-04-24T10:34:42;9.00;99.90
46492;DHT22;32206;51.446;6.792;2023-04-24T10:37:07;9.00;99.90
46492;DHT22;32206;51.446;6.792;2023-04-24T10:42:56;9.00;99.90
46492;DHT22;32206;51.446;6.792;2023-04-24T10:45:22;9.00;99.90
46492;DHT22;32206;51.446;6.792;2023-04-24T10:50:46;9.10;99.90
46492;DHT22;32206;51.446;6.792;2023-04-24T10:53:29;9.20;99.90
46492;DHT22;32206;51.446;6.792;2023-04-24T10:56:06;9.20;99.90
46492;DHT22;32206;51.446;6.792;2023-04-24T10:58:41;9.20;99.90
46492;DHT22;32206;51.446;6.792;2023-04-24T11:08:15;9.40;99.90
46492;DHT22;32206;51.446;6.792;2023-04-24T11:30:48;9.50;99.90
46492;DHT22;32206;51.446;6.792;2023-04-24T11:36:46;9.50;99.90
46492;DHT22;32206;51.446;6.792;2023-04-24T11:39:14;9.60;99.90
46492;DHT22;32206;51.446;6.792;2023-04-24T11:41:40;9.60;99.90
46492;DHT22;32206;51.446;6.792;2023-04-24T11:44:07;9.70;99.00
46492;DHT22;32206;51.446;6.792;2023-04-24T11:46:33;10.10;93.20
46492;DHT22;32206;51.446;6.792;2023-04-24T11:48:59;10.00;79.80
46492;DHT22;32206;51.446;6.792;2023-04-24T11:54:48;10.20;85.50
46492;DHT22;32206;51.446;6.792;2023-04-24T11:57:15;10.40;60.00
46492;DHT22;32206;51.446;6.792;2023-04-24T11:59:40;10.20;64.30
46492;DHT22;32206;51.446;6.792;2023-04-24T12:02:06;10.20;44.90
46492;DHT22;32206;51.446;6.792;2023-04-24T12:04:41;10.30;49.80
46492;DHT22;32206;51.446;6.792;2023-04-24T12:07:07;10.60;58.00
46492;DHT22;32206;51.446;6.792;2023-04-24T12:09:58;10.30;25.40
46492;DHT22;32206;51.446;6.792;2023-04-24T12:12:26;10.20;25.80
46492;DHT22;32206;51.446;6.792;2023-04-24T12:14:57;10.20;32.70
46492;DHT22;32206;51.446;6.792;2023-04-24T12:17:28;10.20;27.50
46492;DHT22;32206;51.446;6.792;2023-04-24T12:20:02;10.20;21.40
46492;DHT22;32206;51.446;6.792;2023-04-24T12:22:42;10.10;1.00
46492;DHT22;32206;51.446;6.792;2023-04-24T12:25:10;10.20;1.00
46492;DHT22;32206;51.446;6.792;2023-04-24T12:27:36;10.10;1.00
46492;DHT22;32206;51.446;6.792;2023-04-24T12:30:04;10.40;1.00
46492;DHT22;32206;51.446;6.792;2023-04-24T12:32:31;10.20;1.00
46492;DHT22;32206;51.446;6.792;2023-04-24T12:34:57;10.60;2.10
46492;DHT22;32206;51.446;6.792;2023-04-24T12:37:25;10.40;1.00
46492;DHT22;32206;51.446;6.792;2023-04-24T12:40:10;10.40;1.00
46492;DHT22;32206;51.446;6.792;2023-04-24T12:42:48;10.50;1.00
46492;DHT22;32206;51.446;6.792;2023-04-24T12:45:15;10.50;1.00
46492;DHT22;32206;51.446;6.792;2023-04-24T12:47:43;10.50;1.00
46492;DHT22;32206;51.446;6.792;2023-04-24T12:53:30;10.50;1.00
46492;DHT22;32206;51.446;6.792;2023-04-24T13:02:41;10.80;99.90
46492;DHT22;32206;51.446;6.792;2023-04-24T13:05:07;10.80;99.90
46492;DHT22;32206;51.446;6.792;2023-04-24T13:07:32;10.70;99.90
46492;DHT22;32206;51.446;6.792;2023-04-24T13:09:58;10.80;99.90
46492;DHT22;32206;51.446;6.792;2023-04-24T13:15:49;10.60;99.90
46492;DHT22;32206;51.446;6.792;2023-04-24T13:18:15;10.80;99.90
46492;DHT22;32206;51.446;6.792;2023-04-24T13:20:41;10.50;1.00
46492;DHT22;32206;51.446;6.792;2023-04-24T13:23:07;10.60;1.00
46492;DHT22;32206;51.446;6.792;2023-04-24T13:25:35;10.80;1.00
46492;DHT22;32206;51.446;6.792;2023-04-24T13:31:23;10.60;1.00
46492;DHT22;32206;51.446;6.792;2023-04-24T13:33:49;10.60;99.90
46492;DHT22;32206;51.446;6.792;2023-04-24T13:36:14;10.70;1.00
46492;DHT22;32206;51.446;6.792;2023-04-24T13:38:42;10.40;1.00
46492;DHT22;32206;51.446;6.792;2023-04-24T13:41:07;10.50;1.00
46492;DHT22;32206;51.446;6.792;2023-04-24T13:43:33;10.50;1.00
46492;DHT22;32206;51.446;6.792;2023-04-24T13:45:59;10.70;1.00
46492;DHT22;32206;51.446;6.792;2023-04-24T13:48:27;10.60;1.00
46492;DHT22;32206;51.446;6.792;2023-04-24T13:50:52;10.70;1.00
46492;DHT22;32206;51.446;6.792;2023-04-24T13:53:18;10.70;1.00
46492;DHT22;32206;51.446;6.792;2023-04-24T13:55:44;10.70;1.00
46492;DHT22;32206;51.446;6.792;2023-04-24T14:01:32;11.10;99.90
46492;DHT22;32206;51.446;6.792;2023-04-24T14:03:57;11.20;99.90
46492;DHT22;32206;51.446;6.792;2023-04-24T14:06:23;11.20;99.90
46492;DHT22;32206;51.446;6.792;2023-04-24T14:08:49;11.20;99.90
46492;DHT22;32206;51.446;6.792;2023-04-24T14:11:16;11.10;99.90
46492;DHT22;32206;51.446;6.792;2023-04-24T14:17:04;11.10;99.90
46492;DHT22;32206;51.446;6.792;2023-04-24T14:19:30;11.10;99.90
46492;DHT22;32206;51.446;6.792;2023-04-24T14:21:55;11.00;99.90
46492;DHT22;32206;51.446;6.792;2023-04-24T14:24:23;11.00;99.90
46492;DHT22;32206;51.446;6.792;2023-04-24T14:33:33;10.90;99.90
46492;DHT22;32206;51.446;6.792;2023-04-24T14:35:59;10.90;99.90
46492;DHT22;32206;51.446;6.792;2023-04-24T14:38:25;10.80;99.90
46492;DHT22;32206;51.446;6.792;2023-04-24T14:40:51;10.70;99.90
46492;DHT22;32206;51.446;6.792;2023-04-24T14:43:16;10.60;1.00
46492;DHT22;32206;51.446;6.792;2023-04-24T14:45:42;10.50;1.00
46492;DHT22;32206;51.446;6.792;2023-04-24T14:48:08;10.70;7.40
46492;DHT22;32206;51.446;6.792;2023-04-24T14:50:34;10.40;29.50
46492;DHT22;32206;51.446;6.792;2023-04-24T14:52:59;10.30;43.20
46492;DHT22;32206;51.446;6.792;2023-04-24T14:55:27;10.30;55.50
46492;DHT22;32206;51.446;6.792;2023-04-24T14:57:53;10.40;57.80
46492;DHT22;32206;51.446;6.792;2023-04-24T15:00:19;10.40;52.30
46492;DHT22;32206;51.446;6.792;2023-04-24T15:02:45;10.40;44.10
46492;DHT22;32206;51.446;6.792;2023-04-24T15:05:11;10.50;64.90
46492;DHT22;32206;51.446;6.792;2023-04-24T15:07:38;10.60;26.40
46492;DHT22;32206;51.446;6.792;2023-04-24T15:10:04;10.90;38.90
46492;DHT22;32206;51.446;6.792;2023-04-24T15:12:30;10.90;11.70
46492;DHT22;32206;51.446;6.792;2023-04-24T15:14:57;11.20;1.00
46492;DHT22;32206;51.446;6.792;2023-04-24T15:17:23;11.40;1.00
46492;DHT22;32206;51.446;6.792;2023-04-24T15:19:49;11.80;1.00
46492;DHT22;32206;51.446;6.792;2023-04-24T15:22:14;11.50;1.00
46492;DHT22;32206;51.446;6.792;2023-04-24T15:24:40;11.60;1.00
46492;DHT22;32206;51.446;6.792;2023-04-24T15:27:09;11.90;1.00
46492;DHT22;32206;51.446;6.792;2023-04-24T15:29:35;12.10;99.90
46492;DHT22;32206;51.446;6.792;2023-04-24T15:32:01;12.20;1.00
46492;DHT22;32206;51.446;6.792;2023-04-24T15:34:27;12.00;1.00
46492;DHT22;32206;51.446;6.792;2023-04-24T15:36:52;12.00;99.90
46492;DHT22;32206;51.446;6.792;2023-04-24T15:39:22;12.40;40.20
46492;DHT22;32206;51.446;6.792;2023-04-24T15:41:48;12.50;1.00
46492;DHT22;32206;51.446;6.792;2023-04-24T15:44:15;12.10;1.00
46492;DHT22;32206;51.446;6.792;2023-04-24T15:46:41;11.80;99.90
46492;DHT22;32206;51.446;6.792;2023-04-24T15:49:06;11.60;97.90
46492;DHT22;32206;51.446;6.792;2023-04-24T15:51:32;11.40;1.00
46492;DHT22;32206;51.446;6.792;2023-04-24T15:53:58;11.40;99.90
46492;DHT22;32206;51.446;6.792;2023-04-24T15:56:23;11.40;99.90
46492;DHT22;32206;51.446;6.792;2023-04-24T15:58:49;12.00;99.90
46492;DHT22;32206;51.446;6.792;2023-04-24T16:01:15;12.30;99.90
46492;DHT22;32206;51.446;6.792;2023-04-24T16:03:41;12.40;1.00
46492;DHT22;32206;51.446;6.792;2023-04-24T16:06:06;14.20;99.90
46492;DHT22;32206;51.446;6.792;2023-04-24T16:08:32;17.00;1.00
46492;DHT22;32206;51.446;6.792;2023-04-24T16:10:57;19.70;99.90
46492;DHT22;32206;51.446;6.792;2023-04-24T16:16:49;19.10;1.00
46492;DHT22;32206;51.446;6.792;2023-04-24T16:19:15;18.20;1.00
46492;DHT22;32206;51.446;6.792;2023-04-24T16:25:03;15.80;20.30
46492;DHT22;32206;51.446;6.792;2023-04-24T16:27:29;14.70;99.90
46492;DHT22;32206;51.446;6.792;2023-04-24T16:33:17;15.10;99.90
46492;DHT22;32206;51.446;6.792;2023-04-24T16:43:05;12.40;99.90
46492;DHT22;32206;51.446;6.792;2023-04-24T16:45:30;11.90;99.90
46492;DHT22;32206;51.446;6.792;2023-04-24T16:47:56;11.80;99.90
46492;DHT22;32206;51.446;6.792;2023-04-24T16:50:22;11.70;1.00
46492;DHT22;32206;51.446;6.792;2023-04-24T16:52:48;11.40;99.90
46492;DHT22;32206;51.446;6.792;2023-04-24T16:55:13;11.40;56.90
46492;DHT22;32206;51.446;6.792;2023-04-24T16:57:39;11.40;99.90
46492;DHT22;32206;51.446;6.792;2023-04-24T17:03:27;11.10;99.90
46492;DHT22;32206;51.446;6.792;2023-04-24T17:05:53;11.30;51.00
46492;DHT22;32206;51.446;6.792;2023-04-24T17:08:18;11.00;1.00
46492;DHT22;32206;51.446;6.792;2023-04-24T17:10:44;11.00;99.90
46492;DHT22;32206;51.446;6.792;2023-04-24T17:13:09;10.90;99.90
46492;DHT22;32206;51.446;6.792;2023-04-24T17:18:57;10.60;1.00
46492;DHT22;32206;51.446;6.792;2023-04-24T17:21:23;10.60;99.90
46492;DHT22;32206;51.446;6.792;2023-04-24T17:23:48;10.70;99.90
46492;DHT22;32206;51.446;6.792;2023-04-24T17:26:15;10.70;1.00
46492;DHT22;32206;51.446;6.792;2023-04-24T17:35:25;10.60;99.90
46492;DHT22;32206;51.446;6.792;2023-04-24T17:37:50;13.00;1.00
46492;DHT22;32206;51.446;6.792;2023-04-24T17:40:16;15.80;99.90
46492;DHT22;32206;51.446;6.792;2023-04-24T17:42:42;14.80;99.90
46492;DHT22;32206;51.446;6.792;2023-04-24T17:48:36;12.40;6.70
46492;DHT22;32206;51.446;6.792;2023-04-24T17:51:01;12.00;1.00
46492;DHT22;32206;51.446;6.792;2023-04-24T17:53:27;14.10;59.80
46492;DHT22;32206;51.446;6.792;2023-04-24T17:55:53;14.30;99.90
46492;DHT22;32206;51.446;6.792;2023-04-24T17:58:22;13.50;99.90
46492;DHT22;32206;51.446;6.792;2023-04-24T18:04:09;13.40;99.90
46492;DHT22;32206;51.446;6.792;2023-04-24T18:06:35;12.90;1.00
46492;DHT22;32206;51.446;6.792;2023-04-24T18:09:01;12.20;1.00
46492;DHT22;32206;51.446;6.792;2023-04-24T18:11:28;11.40;99.90
46492;DHT22;32206;51.446;6.792;2023-04-24T18:13:54;11.50;1.00
46492;DHT22;32206;51.446;6.792;2023-04-24T18:19:41;11.80;1.00
46492;DHT22;32206;51.446;6.792;2023-04-24T18:22:07;11.50;99.90
46492;DHT22;32206;51.446;6.792;2023-04-24T18:24:32;11.50;1.00
46492;DHT22;32206;51.446;6.792;2023-04-24T18:26:58;11.30;1.00
46492;DHT22;32206;51.446;6.792;2023-04-24T18:36:08;10.20;27.20
46492;DHT22;32206;51.446;6.792;2023-04-24T18:38:34;10.10;99.90
46492;DHT22;32206;51.446;6.792;2023-04-24T18:44:23;10.00;99.90
46492;DHT22;32206;51.446;6.792;2023-04-24T18:46:50;10.00;1.00
46492;DHT22;32206;51.446;6.792;2023-04-24T18:49:16;10.00;1.00
46492;DHT22;32206;51.446;6.792;2023-04-24T18:51:41;10.00;1.00
46492;DHT22;32206;51.446;6.792;2023-04-24T18:54:07;9.80;1.00
46492;DHT22;32206;51.446;6.792;2023-04-24T18:56:33;9.80;1.00
46492;DHT22;32206;51.446;6.792;2023-04-24T18:58:58;9.70;1.00
46492;DHT22;32206;51.446;6.792;2023-04-24T19:01:33;9.60;1.00
46492;DHT22;32206;51.446;6.792;2023-04-24T19:04:00;9.60;1.00
46492;DHT22;32206;51.446;6.792;2023-04-24T19:06:26;9.50;1.00
46492;DHT22;32206;51.446;6.792;2023-04-24T19:08:51;9.50;1.00
46492;DHT22;32206;51.446;6.792;2023-04-24T19:11:17;9.50;1.00
46492;DHT22;32206;51.446;6.792;2023-04-24T19:13:42;9.40;1.00
46492;DHT22;32206;51.446;6.792;2023-04-24T19:19:30;9.30;1.00
46492;DHT22;32206;51.446;6.792;2023-04-24T19:21:57;9.30;1.00
46492;DHT22;32206;51.446;6.792;2023-04-24T19:24:23;9.30;1.00
46492;DHT22;32206;51.446;6.792;2023-04-24T19:26:49;9.30;1.00
46492;DHT22;32206;51.446;6.792;2023-04-24T19:29:15;9.30;1.00
46492;DHT22;32206;51.446;6.792;2023-04-24T19:35:03;9.30;1.00
46492;DHT22;32206;51.446;6.792;2023-04-24T19:37:29;9.30;1.00
46492;DHT22;32206;51.446;6.792;2023-04-24T19:39:56;9.30;1.00
46492;DHT22;32206;51.446;6.792;2023-04-24T19:42:22;9.10;1.00
46492;DHT22;32206;51.446;6.792;2023-04-24T19:44:48;9.10;1.00
46492;DHT22;32206;51.446;6.792;2023-04-24T19:50:36;9.10;1.00
46492;DHT22;32206;51.446;6.792;2023-04-24T19:53:02;9.10;1.00
46492;DHT22;32206;51.446;6.792;2023-04-24T19:55:28;9.30;1.00
46492;DHT22;32206;51.446;6.792;2023-04-24T19:57:53;9.10;1.00
46492;DHT22;32206;51.446;6.792;2023-04-24T20:03:41;8.90;1.00
46492;DHT22;32206;51.446;6.792;2023-04-24T20:06:07;8.80;1.00
46492;DHT22;32206;51.446;6.792;2023-04-24T20:08:32;8.80;1.00
46492;DHT22;32206;51.446;6.792;2023-04-24T20:10:59;8.80;1.00
46492;DHT22;32206;51.446;6.792;2023-04-24T20:13:25;8.70;1.00
46492;DHT22;32206;51.446;6.792;2023-04-24T20:22:37;8.60;1.00
46492;DHT22;32206;51.446;6.792;2023-04-24T20:25:09;8.70;1.00
46492;DHT22;32206;51.446;6.792;2023-04-24T20:27:37;8.50;1.00
46492;DHT22;32206;51.446;6.792;2023-04-24T20:30:04;8.50;1.00
46492;DHT22;32206;51.446;6.792;2023-04-24T20:35:52;8.50;2.90
46492;DHT22;32206;51.446;6.792;2023-04-24T20:38:18;8.50;6.80
46492;DHT22;32206;51.446;6.792;2023-04-24T20:40:44;8.40;1.00
46492;DHT22;32206;51.446;6.792;2023-04-24T20:43:13;8.40;6.10
46492;DHT22;32206;51.446;6.792;2023-04-24T20:45:39;8.40;16.60
46492;DHT22;32206;51.446;6.792;2023-04-24T20:51:27;8.30;21.20
46492;DHT22;32206;51.446;6.792;2023-04-24T20:53:54;8.30;21.90
46492;DHT22;32206;51.446;6.792;2023-04-24T20:56:20;8.30;24.00
46492;DHT22;32206;51.446;6.792;2023-04-24T20:58:46;8.30;23.10
46492;DHT22;32206;51.446;6.792;2023-04-24T21:04:34;8.30;28.50
46492;DHT22;32206;51.446;6.792;2023-04-24T21:07:02;8.30;22.70
46492;DHT22;32206;51.446;6.792;2023-04-24T21:09:28;8.20;25.00
46492;DHT22;32206;51.446;6.792;2023-04-24T21:11:54;8.20;32.30
46492;DHT22;32206;51.446;6.792;2023-04-24T21:14:20;8.10;26.80
46492;DHT22;32206;51.446;6.792;2023-04-24T21:16:46;8.10;32.20
46492;DHT22;32206;51.446;6.792;2023-04-24T21:19:12;8.10;38.00
46492;DHT22;32206;51.446;6.792;2023-04-24T21:21:37;8.00;39.10